Time;durP1;ratioP1;P1;durP2;ratioP2;P2;SDS_P1;SDS_P2;PMS_P1;PMS_P2;Temp;Humidity;BMP_temperature;BMP_pressure;BME280_temperature;BME280_humidity;BME280_pressure;Samples;Min_cycle;Max_cycle;Signal;HPM_P1;HPM_P2
2022/10/25 00:02:00;;;;;;;35.95;32.38;;;;;;;;;;1864094;76;21161;-83
2022/10/25 00:04:31;;;;;;;42.55;35.52;;;;;;;;;;1867750;76;21132;-85
2022/10/25 00:07:01;;;;;;;39.63;35.23;;;;;;;;;;1869239;76;21143;-84
2022/10/25 00:09:31;;;;;;;39.27;33.40;;;;;;;;;;1856326;75;21105;-83
2022/10/25 00:12:02;;;;;;;39.67;35.40;;;;;;;;;;1860339;76;21592;-82
2022/10/25 00:14:32;;;;;;;39.95;35.30;;;;;;;;;;1859574;76;21077;-84
2022/10/25 00:17:02;;;;;;;36.53;32.50;;;;;;;;;;1863256;76;21149;-83
2022/10/25 00:19:33;;;;;;;36.65;32.78;;;;;;;;;;1849813;77;21218;-83
2022/10/25 00:22:03;;;;;;;36.28;32.20;;;;;;;;;;1871049;75;21112;-83
2022/10/25 00:24:35;;;;;;;37.98;32.40;;;;;;;;;;1867895;76;21695;-83
2022/10/25 00:27:05;;;;;;;36.03;31.95;;;;;;;;;;1870647;75;21800;-83
2022/10/25 00:29:36;;;;;;;36.35;32.48;;;;;;;;;;1863042;75;21829;-82
2022/10/25 00:32:16;;;;;;;37.93;31.90;;;;;;;;;;1854711;76;21168;-82
2022/10/25 00:34:47;;;;;;;37.60;30.85;;;;;;;;;;1846695;77;21218;-83
2022/10/25 00:37:20;;;;;;;35.88;31.07;;;;;;;;;;1853889;76;21175;-83
2022/10/25 00:39:53;;;;;;;34.55;30.02;;;;;;;;;;1857793;75;21097;-77
2022/10/25 00:42:25;;;;;;;36.90;31.30;;;;;;;;;;1837799;75;21614;-76
2022/10/25 00:44:57;;;;;;;39.70;30.37;;;;;;;;;;1795273;79;21128;-76
2022/10/25 00:47:28;;;;;;;37.03;29.63;;;;;;;;;;1795469;79;21168;-77
2022/10/25 00:50:03;;;;;;;34.95;30.88;;;;;;;;;;1795382;79;21212;-77
2022/10/25 00:52:36;;;;;;;35.28;31.20;;;;;;;;;;1776494;80;21192;-77
2022/10/25 00:55:07;;;;;;;33.38;29.85;;;;;;;;;;1782369;80;21255;-78
2022/10/25 00:57:39;;;;;;;36.25;30.90;;;;;;;;;;1784776;79;21169;-76
2022/10/25 01:00:10;;;;;;;33.53;30.02;;;;;;;;;;1792025;79;21201;-79
2022/10/25 01:02:40;;;;;;;33.65;30.05;;;;;;;;;;1788896;79;21148;-78
2022/10/25 01:05:11;;;;;;;34.58;29.75;;;;;;;;;;1782046;79;21217;-76
2022/10/25 01:07:42;;;;;;;33.63;29.90;;;;;;;;;;1772941;79;21168;-73
2022/10/25 01:10:13;;;;;;;35.70;31.42;;;;;;;;;;1781009;80;21105;-77
2022/10/25 01:12:43;;;;;;;35.78;30.37;;;;;;;;;;1780126;79;21145;-77
2022/10/25 01:15:16;;;;;;;33.58;29.50;;;;;;;;;;1782026;79;21663;-76
2022/10/25 01:17:53;;;;;;;37.13;30.70;;;;;;;;;;1788048;79;21173;-78
2022/10/25 01:20:28;;;;;;;35.98;30.55;;;;;;;;;;1781093;79;21142;-77
2022/10/25 01:23:16;;;;;;;34.43;29.67;;;;;;;;;;1785844;79;21224;-78
2022/10/25 01:25:51;;;;;;;35.83;30.45;;;;;;;;;;1778192;79;21231;-76
2022/10/25 01:28:35;;;;;;;36.13;31.20;;;;;;;;;;1782344;78;21251;-78
2022/10/25 01:31:12;;;;;;;38.67;32.48;;;;;;;;;;1781883;79;21228;-78
2022/10/25 01:33:44;;;;;;;36.60;30.17;;;;;;;;;;1793125;79;21157;-79
2022/10/25 01:36:25;;;;;;;35.40;31.62;;;;;;;;;;1793474;79;21185;-79
2022/10/25 01:38:57;;;;;;;34.45;30.82;;;;;;;;;;1809679;78;21636;-79
2022/10/25 01:41:28;;;;;;;36.55;30.48;;;;;;;;;;1817373;76;21156;-79
2022/10/25 01:44:00;;;;;;;35.80;30.75;;;;;;;;;;1837074;77;21130;-78
2022/10/25 01:46:32;;;;;;;46.50;31.95;;;;;;;;;;1832163;77;21203;-79
2022/10/25 01:49:06;;;;;;;40.15;30.37;;;;;;;;;;1837124;76;21183;-80
2022/10/25 01:51:37;;;;;;;54.08;31.65;;;;;;;;;;1848820;76;21149;-78
2022/10/25 01:54:20;;;;;;;36.28;28.35;;;;;;;;;;1855991;76;21124;-79
2022/10/25 01:56:54;;;;;;;32.98;27.85;;;;;;;;;;1831914;77;21231;-77
2022/10/25 01:59:38;;;;;;;34.98;29.77;;;;;;;;;;1832290;77;21626;-79
2022/10/25 02:02:09;;;;;;;32.58;28.73;;;;;;;;;;1828314;77;21157;-79
2022/10/25 02:04:41;;;;;;;31.37;28.02;;;;;;;;;;1827477;77;21538;-76
2022/10/25 02:07:13;;;;;;;32.08;28.65;;;;;;;;;;1830915;76;21133;-78
2022/10/25 02:09:47;;;;;;;33.85;29.15;;;;;;;;;;1912736;74;21148;-80
2022/10/25 02:12:19;;;;;;;37.25;29.05;;;;;;;;;;1848738;76;21629;-77
2022/10/25 02:14:50;;;;;;;33.98;28.57;;;;;;;;;;1870212;75;21193;-78
2022/10/25 02:17:21;;;;;;;34.08;29.87;;;;;;;;;;1868700;76;21122;-78
2022/10/25 02:19:53;;;;;;;31.70;27.67;;;;;;;;;;1876787;76;21207;-77
2022/10/25 02:22:25;;;;;;;40.50;29.18;;;;;;;;;;1869220;76;21145;-78
2022/10/25 02:24:56;;;;;;;31.90;28.02;;;;;;;;;;1877883;76;21141;-78
2022/10/25 02:27:27;;;;;;;34.58;28.60;;;;;;;;;;1863361;76;21149;-78
2022/10/25 02:29:58;;;;;;;31.33;28.05;;;;;;;;;;1867519;76;21074;-77
2022/10/25 02:32:28;;;;;;;32.70;28.30;;;;;;;;;;1866365;76;21203;-76
2022/10/25 02:34:59;;;;;;;32.88;29.30;;;;;;;;;;1868694;76;21210;-72
2022/10/25 02:37:31;;;;;;;31.30;28.10;;;;;;;;;;1863330;76;21119;-78
2022/10/25 02:40:02;;;;;;;30.25;26.93;;;;;;;;;;1920267;74;21172;-78
2022/10/25 02:42:33;;;;;;;34.40;27.73;;;;;;;;;;1913716;74;21190;-78
2022/10/25 02:45:03;;;;;;;30.55;26.65;;;;;;;;;;1907789;74;21155;-77
2022/10/25 02:47:34;;;;;;;31.52;27.48;;;;;;;;;;1913905;74;21152;-77
2022/10/25 02:50:04;;;;;;;32.33;27.75;;;;;;;;;;1907183;74;21102;-78
2022/10/25 02:52:41;;;;;;;29.55;26.35;;;;;;;;;;1909890;74;21120;-77
2022/10/25 02:55:08;;;;;;;28.67;25.68;;;;;;;;;;1905220;74;22152;-78
2022/10/25 02:57:39;;;;;;;30.32;26.65;;;;;;;;;;1898342;75;21422;-78
2022/10/25 03:00:11;;;;;;;29.35;26.27;;;;;;;;;;1893250;74;21203;-76
2022/10/25 03:02:41;;;;;;;32.30;26.40;;;;;;;;;;1897985;74;21608;-78
2022/10/25 03:05:12;;;;;;;33.67;26.33;;;;;;;;;;1886632;74;21247;-78
2022/10/25 03:07:43;;;;;;;31.82;25.82;;;;;;;;;;1893108;74;21186;-81
2022/10/25 03:10:13;;;;;;;30.08;26.87;;;;;;;;;;1895739;74;21472;-79
2022/10/25 03:12:43;;;;;;;29.25;25.85;;;;;;;;;;1889961;74;21130;-75
2022/10/25 03:15:14;;;;;;;30.15;27.05;;;;;;;;;;1884008;74;21075;-76
2022/10/25 03:17:44;;;;;;;31.23;27.73;;;;;;;;;;1884347;74;21121;-78
2022/10/25 03:20:15;;;;;;;30.72;27.10;;;;;;;;;;1871826;75;21158;-75
2022/10/25 03:22:46;;;;;;;32.50;26.87;;;;;;;;;;1884815;74;21114;-78
2022/10/25 03:25:16;;;;;;;29.98;26.45;;;;;;;;;;1892474;74;21132;-78
2022/10/25 03:27:47;;;;;;;32.10;27.22;;;;;;;;;;1890815;74;21199;-78
2022/10/25 03:30:18;;;;;;;29.72;26.42;;;;;;;;;;1847327;76;21124;-77
2022/10/25 03:32:48;;;;;;;32.95;26.77;;;;;;;;;;1853177;76;21170;-76
2022/10/25 03:35:19;;;;;;;29.60;26.70;;;;;;;;;;1849708;76;21091;-77
2022/10/25 03:37:53;;;;;;;29.95;26.75;;;;;;;;;;1854168;76;21236;-79
2022/10/25 03:40:24;;;;;;;29.07;25.88;;;;;;;;;;1849369;76;21097;-79
2022/10/25 03:42:57;;;;;;;29.55;26.35;;;;;;;;;;1843559;75;21166;-79
2022/10/25 03:45:28;;;;;;;31.75;27.40;;;;;;;;;;1841399;76;21194;-78
2022/10/25 03:48:00;;;;;;;28.42;25.52;;;;;;;;;;1847707;76;21597;-77
2022/10/25 03:50:31;;;;;;;29.82;25.05;;;;;;;;;;1836057;76;21554;-77
2022/10/25 03:53:01;;;;;;;28.65;25.23;;;;;;;;;;1855280;76;21162;-78
2022/10/25 03:55:32;;;;;;;28.23;25.32;;;;;;;;;;1839134;76;21669;-78
2022/10/25 03:58:02;;;;;;;28.73;25.65;;;;;;;;;;1861648;75;21137;-78
2022/10/25 04:00:32;;;;;;;26.27;23.60;;;;;;;;;;1827369;77;21161;-77
2022/10/25 04:03:06;;;;;;;27.17;24.15;;;;;;;;;;1841851;77;21142;-76
2022/10/25 04:05:36;;;;;;;29.10;24.85;;;;;;;;;;1834888;77;21154;-77
2022/10/25 04:08:07;;;;;;;27.58;24.60;;;;;;;;;;1860426;76;21188;-77
2022/10/25 04:10:37;;;;;;;31.75;25.05;;;;;;;;;;1862290;76;21100;-75
2022/10/25 04:13:08;;;;;;;29.00;25.92;;;;;;;;;;1861486;76;21270;-78
2022/10/25 04:15:39;;;;;;;29.10;24.87;;;;;;;;;;1862289;75;21110;-78
2022/10/25 04:18:09;;;;;;;28.92;25.43;;;;;;;;;;1849846;76;21079;-80
2022/10/25 04:20:39;;;;;;;30.60;25.90;;;;;;;;;;1866382;76;21880;-81
2022/10/25 04:23:10;;;;;;;29.50;25.27;;;;;;;;;;1855383;76;21215;-77
2022/10/25 04:25:41;;;;;;;30.35;25.60;;;;;;;;;;1855743;76;21184;-78
2022/10/25 04:28:12;;;;;;;28.27;25.27;;;;;;;;;;1859195;76;21166;-79
2022/10/25 04:30:42;;;;;;;33.60;24.75;;;;;;;;;;1878061;75;21074;-77
2022/10/25 04:33:13;;;;;;;26.23;23.70;;;;;;;;;;1839274;75;22189;-79
2022/10/25 04:35:43;;;;;;;27.05;24.35;;;;;;;;;;1846825;76;21396;-79
2022/10/25 04:38:13;;;;;;;27.20;24.35;;;;;;;;;;1842203;76;21104;-79
2022/10/25 04:40:44;;;;;;;28.10;24.98;;;;;;;;;;1856209;76;22405;-77
2022/10/25 04:43:14;;;;;;;28.27;25.02;;;;;;;;;;1875428;76;21181;-79
2022/10/25 04:45:45;;;;;;;27.40;24.60;;;;;;;;;;1858015;76;21777;-79
2022/10/25 04:48:15;;;;;;;27.82;25.02;;;;;;;;;;1830425;77;21180;-79
2022/10/25 04:50:46;;;;;;;26.48;23.70;;;;;;;;;;1851776;76;21127;-80
2022/10/25 04:53:17;;;;;;;27.62;24.43;;;;;;;;;;1850308;76;21118;-77
2022/10/25 04:55:57;;;;;;;26.35;23.75;;;;;;;;;;1844680;78;21130;-80
2022/10/25 04:58:28;;;;;;;25.48;22.58;;;;;;;;;;1846272;76;21170;-79
2022/10/25 05:01:01;;;;;;;26.35;23.57;;;;;;;;;;1847544;76;21165;-79
2022/10/25 05:03:31;;;;;;;26.37;23.75;;;;;;;;;;1861859;76;21534;-79
2022/10/25 05:06:03;;;;;;;28.95;23.92;;;;;;;;;;1843627;77;21133;-77
2022/10/25 05:08:33;;;;;;;25.77;23.15;;;;;;;;;;1863835;76;21083;-78
2022/10/25 05:11:03;;;;;;;26.25;23.40;;;;;;;;;;1853508;76;21526;-78
2022/10/25 05:13:35;;;;;;;26.50;23.87;;;;;;;;;;1854450;76;21138;-79
2022/10/25 05:16:06;;;;;;;26.07;22.85;;;;;;;;;;1845436;77;21173;-79
2022/10/25 05:18:37;;;;;;;25.40;22.87;;;;;;;;;;1849908;76;21122;-77
2022/10/25 05:21:12;;;;;;;26.27;23.47;;;;;;;;;;1865127;76;21151;-77
2022/10/25 05:23:47;;;;;;;24.40;21.90;;;;;;;;;;1832121;77;21216;-79
2022/10/25 05:26:19;;;;;;;25.15;22.60;;;;;;;;;;1919437;74;21123;-79
2022/10/25 05:28:50;;;;;;;25.12;22.65;;;;;;;;;;1854499;76;21080;-79
2022/10/25 05:31:27;;;;;;;29.52;24.32;;;;;;;;;;1840155;77;21231;-79
2022/10/25 05:33:59;;;;;;;26.10;22.65;;;;;;;;;;1839687;77;21498;-78
2022/10/25 05:36:32;;;;;;;23.57;21.17;;;;;;;;;;1837251;77;21213;-80
2022/10/25 05:39:02;;;;;;;23.73;21.42;;;;;;;;;;1832305;77;21213;-78
2022/10/25 05:41:33;;;;;;;26.10;21.77;;;;;;;;;;1915404;74;21102;-78
2022/10/25 05:44:05;;;;;;;24.32;20.85;;;;;;;;;;1920429;74;21141;-78
2022/10/25 05:46:36;;;;;;;24.32;21.70;;;;;;;;;;1888505;75;21594;-78
2022/10/25 05:49:07;;;;;;;24.15;21.30;;;;;;;;;;1896576;74;21149;-80
2022/10/25 05:51:38;;;;;;;26.10;21.02;;;;;;;;;;1896870;74;21675;-79
2022/10/25 05:54:13;;;;;;;24.12;21.60;;;;;;;;;;1897272;75;21146;-78
2022/10/25 05:56:44;;;;;;;22.35;20.25;;;;;;;;;;1889083;74;21099;-79
2022/10/25 05:59:17;;;;;;;23.02;20.62;;;;;;;;;;1888785;75;21556;-80
2022/10/25 06:01:48;;;;;;;22.93;20.77;;;;;;;;;;1914707;74;21086;-78
2022/10/25 06:04:19;;;;;;;24.40;20.95;;;;;;;;;;1910097;74;21173;-77
2022/10/25 06:06:51;;;;;;;23.15;20.65;;;;;;;;;;1899219;74;21160;-78
2022/10/25 06:09:25;;;;;;;24.07;21.33;;;;;;;;;;1904591;74;21116;-78
2022/10/25 06:11:56;;;;;;;22.58;20.27;;;;;;;;;;1910480;74;21125;-76
2022/10/25 06:14:26;;;;;;;22.15;19.95;;;;;;;;;;1909690;74;21123;-77
2022/10/25 06:16:57;;;;;;;23.45;21.12;;;;;;;;;;1908711;74;21546;-77
2022/10/25 06:19:27;;;;;;;24.00;21.70;;;;;;;;;;1904377;74;21066;-76
2022/10/25 06:21:59;;;;;;;23.32;21.05;;;;;;;;;;1904688;74;21444;-78
2022/10/25 06:24:30;;;;;;;27.58;24.75;;;;;;;;;;1927477;74;21117;-77
2022/10/25 06:27:00;;;;;;;23.12;21.02;;;;;;;;;;1907590;74;21534;-76
2022/10/25 06:29:31;;;;;;;23.57;21.10;;;;;;;;;;1905361;74;21126;-77
2022/10/25 06:32:01;;;;;;;22.65;20.60;;;;;;;;;;1899767;74;22329;-76
2022/10/25 06:34:32;;;;;;;23.05;20.75;;;;;;;;;;1902794;75;21188;-77
2022/10/25 06:37:05;;;;;;;24.37;21.80;;;;;;;;;;1896268;74;21142;-78
2022/10/25 06:39:37;;;;;;;24.37;21.30;;;;;;;;;;1885095;74;21173;-77
2022/10/25 06:42:08;;;;;;;24.45;21.95;;;;;;;;;;1900218;75;21144;-77
2022/10/25 06:44:38;;;;;;;24.70;22.25;;;;;;;;;;1896436;74;21158;-78
2022/10/25 06:47:08;;;;;;;23.77;21.48;;;;;;;;;;1904489;74;21119;-77
2022/10/25 06:49:40;;;;;;;23.60;21.40;;;;;;;;;;1894243;75;21047;-78
2022/10/25 06:52:12;;;;;;;24.47;21.82;;;;;;;;;;1889743;75;21121;-78
2022/10/25 06:54:42;;;;;;;23.95;21.55;;;;;;;;;;1892472;75;21189;-77
2022/10/25 06:57:13;;;;;;;25.40;22.82;;;;;;;;;;1892610;74;21208;-76
2022/10/25 06:59:44;;;;;;;23.35;21.07;;;;;;;;;;1889322;75;21428;-76
2022/10/25 07:02:15;;;;;;;25.32;22.62;;;;;;;;;;1896130;75;21157;-76
2022/10/25 07:04:45;;;;;;;24.67;22.22;;;;;;;;;;1888029;75;21243;-77
2022/10/25 07:07:15;;;;;;;23.73;21.35;;;;;;;;;;1886868;74;21276;-77
2022/10/25 07:09:46;;;;;;;24.20;21.80;;;;;;;;;;1881469;75;21220;-77
2022/10/25 07:12:16;;;;;;;24.23;21.90;;;;;;;;;;1909688;74;21122;-78
2022/10/25 07:14:46;;;;;;;23.30;21.05;;;;;;;;;;1895382;74;21145;-77
2022/10/25 07:17:17;;;;;;;23.77;20.68;;;;;;;;;;1880381;75;21173;-75
2022/10/25 07:19:47;;;;;;;25.08;22.32;;;;;;;;;;1889551;75;21146;-75
2022/10/25 07:22:18;;;;;;;23.83;21.33;;;;;;;;;;1893772;74;21120;-78
2022/10/25 07:24:48;;;;;;;24.85;22.20;;;;;;;;;;1888846;75;21138;-78
2022/10/25 07:27:18;;;;;;;26.85;22.32;;;;;;;;;;1887622;75;21235;-77
2022/10/25 07:29:49;;;;;;;24.30;21.70;;;;;;;;;;1895773;74;21601;-76
2022/10/25 07:32:19;;;;;;;24.40;21.80;;;;;;;;;;1879405;75;21152;-77
2022/10/25 07:34:49;;;;;;;25.05;22.58;;;;;;;;;;1885709;75;21131;-77
2022/10/25 07:37:20;;;;;;;24.80;22.40;;;;;;;;;;1899925;74;21057;-77
2022/10/25 07:39:50;;;;;;;23.42;21.25;;;;;;;;;;1904175;74;21036;-74
2022/10/25 07:42:21;;;;;;;25.23;22.67;;;;;;;;;;1908236;74;21168;-75
2022/10/25 07:44:51;;;;;;;25.75;23.05;;;;;;;;;;1913859;72;21173;-75
2022/10/25 07:47:23;;;;;;;26.68;23.80;;;;;;;;;;1919200;74;21177;-78
2022/10/25 07:49:56;;;;;;;26.40;23.77;;;;;;;;;;1905673;75;21166;-75
2022/10/25 07:52:26;;;;;;;28.12;25.20;;;;;;;;;;1903135;75;21136;-79
2022/10/25 07:54:57;;;;;;;27.05;23.90;;;;;;;;;;1910107;75;21145;-78
2022/10/25 07:57:28;;;;;;;26.62;23.90;;;;;;;;;;1898327;74;21169;-79
2022/10/25 07:59:58;;;;;;;27.60;24.77;;;;;;;;;;1910928;75;21101;-79
2022/10/25 08:02:28;;;;;;;27.60;24.82;;;;;;;;;;1910137;75;21135;-77
2022/10/25 08:04:59;;;;;;;28.47;23.95;;;;;;;;;;1918463;75;21154;-77
2022/10/25 08:07:33;;;;;;;25.65;22.93;;;;;;;;;;1909444;74;21086;-77
2022/10/25 08:10:04;;;;;;;27.22;23.47;;;;;;;;;;1909502;74;21607;-77
2022/10/25 08:12:35;;;;;;;27.48;23.57;;;;;;;;;;1912003;74;21141;-79
2022/10/25 08:15:06;;;;;;;25.85;23.25;;;;;;;;;;1907080;75;21804;-76
2022/10/25 08:17:37;;;;;;;27.22;24.10;;;;;;;;;;1908886;74;21180;-76
2022/10/25 08:20:07;;;;;;;29.48;25.55;;;;;;;;;;1860243;76;22083;-78
2022/10/25 08:22:38;;;;;;;27.70;24.82;;;;;;;;;;1871987;75;21141;-76
2022/10/25 08:25:09;;;;;;;28.30;25.48;;;;;;;;;;1861395;76;21139;-79
2022/10/25 08:27:40;;;;;;;28.87;25.97;;;;;;;;;;1835264;78;21150;-77
2022/10/25 08:30:11;;;;;;;27.32;24.05;;;;;;;;;;1854530;76;21183;-76
2022/10/25 08:32:41;;;;;;;26.82;23.38;;;;;;;;;;1847552;76;21055;-75
2022/10/25 08:35:12;;;;;;;24.87;22.05;;;;;;;;;;1856327;76;21190;-77
2022/10/25 08:37:44;;;;;;;25.50;22.77;;;;;;;;;;1839958;77;21630;-78
2022/10/25 08:40:21;;;;;;;26.82;23.27;;;;;;;;;;1839317;78;21158;-76
2022/10/25 08:42:59;;;;;;;26.05;23.25;;;;;;;;;;1835258;76;21146;-76
2022/10/25 08:45:31;;;;;;;27.45;23.70;;;;;;;;;;1840706;75;21197;-77
2022/10/25 08:48:02;;;;;;;28.38;24.27;;;;;;;;;;1841202;78;21107;-77
2022/10/25 08:50:36;;;;;;;27.85;24.20;;;;;;;;;;1838517;78;21157;-77
2022/10/25 08:53:08;;;;;;;25.57;22.90;;;;;;;;;;1851864;76;21140;-77
2022/10/25 08:55:43;;;;;;;25.97;23.22;;;;;;;;;;1842975;76;21791;-77
2022/10/25 08:58:16;;;;;;;28.00;25.25;;;;;;;;;;1824539;78;21236;-77
2022/10/25 09:00:48;;;;;;;27.10;24.20;;;;;;;;;;1846100;76;21225;-76
2022/10/25 09:03:25;;;;;;;31.27;24.90;;;;;;;;;;1840410;76;21127;-76
2022/10/25 09:05:58;;;;;;;26.30;23.62;;;;;;;;;;1837898;78;21224;-78
2022/10/25 09:08:46;;;;;;;25.52;22.93;;;;;;;;;;1861781;76;21111;-77
2022/10/25 09:11:21;;;;;;;27.40;23.42;;;;;;;;;;1871598;76;21131;-76
2022/10/25 09:13:53;;;;;;;27.50;24.43;;;;;;;;;;1860369;75;21188;-77
2022/10/25 09:16:33;;;;;;;26.42;23.67;;;;;;;;;;1839191;78;21185;-76
2022/10/25 09:19:05;;;;;;;30.30;23.85;;;;;;;;;;1851663;76;21155;-77
2022/10/25 09:21:42;;;;;;;25.20;22.60;;;;;;;;;;1842518;76;21103;-77
2022/10/25 09:24:14;;;;;;;26.68;23.92;;;;;;;;;;1839604;76;21137;-75
2022/10/25 09:26:48;;;;;;;27.50;24.15;;;;;;;;;;1846242;76;21178;-76
2022/10/25 09:29:23;;;;;;;27.37;24.43;;;;;;;;;;1853774;76;21230;-77
2022/10/25 09:31:55;;;;;;;28.50;23.20;;;;;;;;;;1839992;77;21546;-76
2022/10/25 09:34:26;;;;;;;24.05;21.57;;;;;;;;;;1872358;75;21175;-78
2022/10/25 09:36:58;;;;;;;24.75;22.40;;;;;;;;;;1867455;76;21608;-77
2022/10/25 09:39:44;;;;;;;26.12;23.55;;;;;;;;;;1844494;76;21162;-75
2022/10/25 09:42:16;;;;;;;24.50;22.15;;;;;;;;;;1864316;76;21155;-77
2022/10/25 09:44:50;;;;;;;23.62;21.20;;;;;;;;;;1873416;76;21161;-80
2022/10/25 09:47:25;;;;;;;24.80;22.13;;;;;;;;;;1870802;76;21153;-76
2022/10/25 09:50:00;;;;;;;23.80;20.85;;;;;;;;;;1864018;76;21210;-76
2022/10/25 09:52:41;;;;;;;24.07;20.45;;;;;;;;;;1868425;76;21137;-75
2022/10/25 09:55:14;;;;;;;28.62;21.00;;;;;;;;;;1863408;76;21215;-75
2022/10/25 09:57:45;;;;;;;24.90;21.93;;;;;;;;;;1851808;76;21091;-77
2022/10/25 10:00:16;;;;;;;23.10;20.60;;;;;;;;;;1852645;77;21091;-76
2022/10/25 10:02:46;;;;;;;25.70;23.10;;;;;;;;;;1865376;76;21160;-78
2022/10/25 10:05:18;;;;;;;25.65;23.02;;;;;;;;;;1828908;76;21107;-78
2022/10/25 10:07:50;;;;;;;27.48;24.02;;;;;;;;;;1868407;76;21111;-76
2022/10/25 10:10:21;;;;;;;26.27;23.47;;;;;;;;;;1877193;76;21194;-76
2022/10/25 10:12:53;;;;;;;26.20;23.55;;;;;;;;;;1886106;76;21486;-75
2022/10/25 10:15:27;;;;;;;26.42;22.67;;;;;;;;;;1838396;77;21096;-76
2022/10/25 10:18:15;;;;;;;26.05;23.60;;;;;;;;;;1867582;76;21165;-75
2022/10/25 10:20:59;;;;;;;26.82;24.30;;;;;;;;;;1869066;76;21087;-77
2022/10/25 10:23:33;;;;;;;28.50;25.35;;;;;;;;;;1861305;76;21169;-75
2022/10/25 10:26:05;;;;;;;29.50;25.88;;;;;;;;;;1871054;76;21149;-77
2022/10/25 10:28:35;;;;;;;33.30;26.60;;;;;;;;;;1882830;76;21082;-76
2022/10/25 10:31:07;;;;;;;30.52;26.55;;;;;;;;;;1864108;76;21127;-78
2022/10/25 10:33:38;;;;;;;30.20;26.00;;;;;;;;;;1866722;76;21131;-77
2022/10/25 10:36:22;;;;;;;34.00;24.82;;;;;;;;;;1855794;76;21153;-77
2022/10/25 10:38:52;;;;;;;26.93;24.07;;;;;;;;;;1852320;77;21129;-78
2022/10/25 10:41:27;;;;;;;26.90;24.10;;;;;;;;;;1851382;77;21212;-76
2022/10/25 10:44:07;;;;;;;26.97;24.05;;;;;;;;;;1853964;76;21135;-79
2022/10/25 10:46:39;;;;;;;28.65;24.67;;;;;;;;;;1876916;75;21816;-76
2022/10/25 10:49:11;;;;;;;30.12;26.50;;;;;;;;;;1906162;74;21723;-76
2022/10/25 10:51:43;;;;;;;34.10;29.18;;;;;;;;;;1899904;75;21133;-76
2022/10/25 10:54:23;;;;;;;28.57;25.57;;;;;;;;;;1914884;74;21085;-77
2022/10/25 10:56:59;;;;;;;31.27;25.25;;;;;;;;;;1901432;74;21596;-77
2022/10/25 10:59:30;;;;;;;28.32;24.37;;;;;;;;;;1909358;74;21118;-75
2022/10/25 11:02:14;;;;;;;27.82;24.92;;;;;;;;;;1909583;74;21636;-75
2022/10/25 11:04:52;;;;;;;28.42;25.50;;;;;;;;;;1881242;74;21073;-76
2022/10/25 11:07:29;;;;;;;29.55;25.92;;;;;;;;;;1899474;75;21086;-78
2022/10/25 11:10:04;;;;;;;27.95;24.90;;;;;;;;;;1899058;74;21067;-76
2022/10/25 11:12:34;;;;;;;26.97;24.10;;;;;;;;;;1904842;74;21099;-86
2022/10/25 11:15:16;;;;;;;26.15;23.18;;;;;;;;;;1908524;74;21074;-83
2022/10/25 11:17:51;;;;;;;27.15;22.30;;;;;;;;;;1908832;74;21571;-83
2022/10/25 11:20:23;;;;;;;27.42;22.65;;;;;;;;;;1904685;74;21173;-84
2022/10/25 11:23:07;;;;;;;26.80;21.12;;;;;;;;;;1930422;74;21176;-83
2022/10/25 11:25:47;;;;;;;21.68;19.37;;;;;;;;;;1897399;74;21125;-83
2022/10/25 11:28:28;;;;;;;21.65;18.40;;;;;;;;;;1911140;74;21207;-84
2022/10/25 11:31:03;;;;;;;22.45;17.52;;;;;;;;;;1919278;74;21063;-84
2022/10/25 11:34:02;;;;;;;20.40;17.73;;;;;;;;;;1915422;74;21208;-83
2022/10/25 11:36:50;;;;;;;20.90;17.42;;;;;;;;;;1918739;72;21685;-82
2022/10/25 11:39:36;;;;;;;22.82;17.20;;;;;;;;;;1919178;74;21137;-84
2022/10/25 11:42:30;;;;;;;18.73;16.65;;;;;;;;;;1908586;72;21848;-83
2022/10/25 11:45:18;;;;;;;19.73;15.65;;;;;;;;;;1849806;76;21086;-82
2022/10/25 11:47:58;;;;;;;19.02;15.90;;;;;;;;;;1844207;76;21086;-83
2022/10/25 11:50:35;;;;;;;18.92;15.32;;;;;;;;;;1891298;74;21039;-85
2022/10/25 11:53:07;;;;;;;16.23;14.53;;;;;;;;;;1932524;74;21087;-83
2022/10/25 11:55:57;;;;;;;15.25;13.75;;;;;;;;;;1895988;74;21562;-84
2022/10/25 11:58:47;;;;;;;20.10;15.15;;;;;;;;;;1904225;74;21086;-85
2022/10/25 12:01:37;;;;;;;16.25;14.45;;;;;;;;;;1796888;79;21202;-83
2022/10/25 12:04:15;;;;;;;17.35;13.83;;;;;;;;;;1762807;80;21118;-83
2022/10/25 12:06:59;;;;;;;18.57;14.55;;;;;;;;;;1808753;77;21682;-83
2022/10/25 12:09:33;;;;;;;17.95;14.43;;;;;;;;;;1886665;74;21147;-83
2022/10/25 12:12:04;;;;;;;18.10;14.78;;;;;;;;;;1841844;76;21615;-83
2022/10/25 12:14:36;;;;;;;17.92;14.85;;;;;;;;;;1855041;75;21084;-85
2022/10/25 12:17:08;;;;;;;17.85;15.08;;;;;;;;;;1859003;75;21115;-82
2022/10/25 12:19:39;;;;;;;18.10;14.63;;;;;;;;;;1857197;76;21225;-85
2022/10/25 12:22:11;;;;;;;18.70;16.50;;;;;;;;;;1855813;75;21179;-85
2022/10/25 12:24:46;;;;;;;20.50;15.88;;;;;;;;;;1855849;76;21228;-85
2022/10/25 12:27:15;;;;;;;23.52;17.00;;;;;;;;;;1876815;75;21100;-85
2022/10/25 12:29:49;;;;;;;20.23;16.82;;;;;;;;;;1885688;75;21321;-83
2022/10/25 12:32:24;;;;;;;21.10;17.20;;;;;;;;;;1858195;75;21654;-84
2022/10/25 12:34:55;;;;;;;19.15;16.00;;;;;;;;;;1864970;75;21139;-83
2022/10/25 12:37:32;;;;;;;21.05;16.82;;;;;;;;;;1867998;75;21159;-84
2022/10/25 12:40:05;;;;;;;18.12;16.10;;;;;;;;;;1892667;74;21115;-84
2022/10/25 12:42:48;;;;;;;20.72;16.60;;;;;;;;;;1879247;74;21197;-83
2022/10/25 12:45:38;;;;;;;19.73;16.65;;;;;;;;;;1867274;76;21157;-84
2022/10/25 12:48:18;;;;;;;20.52;15.38;;;;;;;;;;1855331;75;22068;-85
2022/10/25 12:51:03;;;;;;;18.57;15.23;;;;;;;;;;1843206;76;21150;-84
2022/10/25 12:53:39;;;;;;;21.65;15.60;;;;;;;;;;1839038;76;21948;-83
2022/10/25 12:56:15;;;;;;;17.83;15.67;;;;;;;;;;1909815;74;21199;-83
2022/10/25 12:58:59;;;;;;;18.60;15.30;;;;;;;;;;1896846;75;21122;-83
2022/10/25 13:01:36;;;;;;;19.52;15.55;;;;;;;;;;1903090;74;21070;-84
2022/10/25 13:04:20;;;;;;;22.80;14.85;;;;;;;;;;1907628;74;21098;-83
2022/10/25 13:06:53;;;;;;;18.42;15.38;;;;;;;;;;1894216;74;21157;-83
2022/10/25 13:09:28;;;;;;;19.37;14.68;;;;;;;;;;1890111;74;21129;-83
2022/10/25 13:11:59;;;;;;;18.80;15.85;;;;;;;;;;1903342;73;21125;-83
2022/10/25 13:14:31;;;;;;;20.70;16.35;;;;;;;;;;1907968;74;21215;-84
2022/10/25 13:17:21;;;;;;;19.82;16.23;;;;;;;;;;1884381;74;21062;-83
2022/10/25 13:19:55;;;;;;;22.15;16.93;;;;;;;;;;1904947;74;21165;-83
2022/10/25 13:22:32;;;;;;;24.20;16.20;;;;;;;;;;1909155;74;21117;-82
2022/10/25 13:25:10;;;;;;;19.73;17.02;;;;;;;;;;1905733;74;21118;-82
2022/10/25 13:27:41;;;;;;;24.20;18.17;;;;;;;;;;1903174;74;21146;-82
2022/10/25 13:30:25;;;;;;;22.50;17.23;;;;;;;;;;1900317;74;21153;-83
2022/10/25 13:33:13;;;;;;;21.40;17.27;;;;;;;;;;1884893;74;21117;-84
2022/10/25 13:35:51;;;;;;;25.25;17.85;;;;;;;;;;1900524;74;21160;-84
2022/10/25 13:38:22;;;;;;;23.80;18.25;;;;;;;;;;1892583;74;21524;-85
2022/10/25 13:41:14;;;;;;;23.47;17.80;;;;;;;;;;1902525;74;21216;-83
2022/10/25 13:43:54;;;;;;;24.18;19.20;;;;;;;;;;1915064;74;21156;-83
2022/10/25 13:46:33;;;;;;;21.60;18.65;;;;;;;;;;1879919;75;21224;-84
2022/10/25 13:51:47;;;;;;;25.62;18.92;;;;;;;;;;1884476;74;21144;-84
2022/10/25 13:54:23;;;;;;;22.80;18.95;;;;;;;;;;1884514;74;21633;-82
2022/10/25 13:56:57;;;;;;;23.67;18.20;;;;;;;;;;1871917;75;21135;-82
2022/10/25 13:59:44;;;;;;;24.87;18.70;;;;;;;;;;1871711;75;21123;-82
2022/10/25 14:02:19;;;;;;;25.20;19.92;;;;;;;;;;1844853;76;21433;-83
2022/10/25 14:04:49;;;;;;;23.95;19.45;;;;;;;;;;1862961;75;21085;-82
2022/10/25 14:07:37;;;;;;;23.42;19.70;;;;;;;;;;1855023;75;21213;-82
2022/10/25 14:10:09;;;;;;;25.88;19.70;;;;;;;;;;1857178;76;21680;-83
2022/10/25 14:12:40;;;;;;;23.05;18.30;;;;;;;;;;1848837;75;21143;-83
2022/10/25 14:15:20;;;;;;;21.55;18.32;;;;;;;;;;1869104;76;21149;-83
2022/10/25 14:17:51;;;;;;;22.32;18.15;;;;;;;;;;1873131;75;21657;-82
2022/10/25 14:20:31;;;;;;;20.00;17.70;;;;;;;;;;1842414;76;21146;-81
2022/10/25 14:23:06;;;;;;;21.82;17.70;;;;;;;;;;1853450;76;21673;-83
2022/10/25 14:25:55;;;;;;;25.27;16.80;;;;;;;;;;1855087;76;21174;-82
2022/10/25 14:28:27;;;;;;;19.02;16.55;;;;;;;;;;1869214;75;21177;-82
2022/10/25 14:31:00;;;;;;;20.55;16.32;;;;;;;;;;1868693;74;21182;-82
2022/10/25 14:33:35;;;;;;;20.17;16.67;;;;;;;;;;1865032;75;21119;-82
2022/10/25 14:36:07;;;;;;;23.22;17.05;;;;;;;;;;1890742;73;21116;-83
2022/10/25 14:38:39;;;;;;;18.07;16.12;;;;;;;;;;1872104;75;21606;-84
2022/10/25 14:41:10;;;;;;;21.62;16.35;;;;;;;;;;1860611;75;21146;-84
2022/10/25 14:43:41;;;;;;;19.92;16.35;;;;;;;;;;1871981;75;21115;-84
2022/10/25 14:46:18;;;;;;;19.87;15.40;;;;;;;;;;1873071;76;21182;-84
2022/10/25 14:48:49;;;;;;;17.52;14.93;;;;;;;;;;1860889;76;21230;-85
2022/10/25 14:51:21;;;;;;;18.45;14.87;;;;;;;;;;1871434;76;21084;-83
2022/10/25 14:53:53;;;;;;;23.38;16.50;;;;;;;;;;1858312;76;21133;-84
2022/10/25 14:56:33;;;;;;;18.52;15.03;;;;;;;;;;1864761;75;21147;-83